sensor_id;sensor_type;location;lat;lon;timestamp;pressure;altitude;pressure_sealevel;temperature
75811;BMP280;64449;50.016;19.954;2023-04-15T00:00:30;97446.58;;;12.42
75811;BMP280;64449;50.016;19.954;2023-04-15T00:02:55;97449.54;;;12.40
75811;BMP280;64449;50.016;19.954;2023-04-15T00:05:21;97451.48;;;12.39
75811;BMP280;64449;50.016;19.954;2023-04-15T00:07:46;97455.79;;;12.38
75811;BMP280;64449;50.016;19.954;2023-04-15T00:10:12;97456.95;;;12.35
75811;BMP280;64449;50.016;19.954;2023-04-15T00:12:39;97460.46;;;12.33
75811;BMP280;64449;50.016;19.954;2023-04-15T00:15:06;97458.73;;;12.30
75811;BMP280;64449;50.016;19.954;2023-04-15T00:17:33;97458.89;;;12.26
75811;BMP280;64449;50.016;19.954;2023-04-15T00:19:59;97467.96;;;12.25
75811;BMP280;64449;50.016;19.954;2023-04-15T00:22:26;97472.84;;;12.23
75811;BMP280;64449;50.016;19.954;2023-04-15T00:24:54;97476.05;;;12.23
75811;BMP280;64449;50.016;19.954;2023-04-15T00:27:19;97468.42;;;12.20
75811;BMP280;64449;50.016;19.954;2023-04-15T00:29:54;97462.92;;;12.18
75811;BMP280;64449;50.016;19.954;2023-04-15T00:32:23;97464.34;;;12.17
75811;BMP280;64449;50.016;19.954;2023-04-15T00:34:51;97465.23;;;12.16
75811;BMP280;64449;50.016;19.954;2023-04-15T00:37:17;97460.31;;;12.15
75811;BMP280;64449;50.016;19.954;2023-04-15T00:39:43;97453.98;;;12.14
75811;BMP280;64449;50.016;19.954;2023-04-15T00:42:09;97451.14;;;12.13
75811;BMP280;64449;50.016;19.954;2023-04-15T00:44:34;97438.90;;;12.12
75811;BMP280;64449;50.016;19.954;2023-04-15T00:47:00;97437.52;;;12.11
75811;BMP280;64449;50.016;19.954;2023-04-15T00:49:27;97440.36;;;12.10
75811;BMP280;64449;50.016;19.954;2023-04-15T00:51:53;97443.50;;;12.10
75811;BMP280;64449;50.016;19.954;2023-04-15T00:54:18;97443.40;;;12.09
75811;BMP280;64449;50.016;19.954;2023-04-15T00:56:44;97446.25;;;12.10
75811;BMP280;64449;50.016;19.954;2023-04-15T00:59:09;97451.84;;;12.12
75811;BMP280;64449;50.016;19.954;2023-04-15T01:01:36;97453.46;;;12.13
75811;BMP280;64449;50.016;19.954;2023-04-15T01:04:02;97459.40;;;12.13
75811;BMP280;64449;50.016;19.954;2023-04-15T01:06:29;97458.58;;;12.12
75811;BMP280;64449;50.016;19.954;2023-04-15T01:08:57;97463.98;;;12.11
75811;BMP280;64449;50.016;19.954;2023-04-15T01:11:23;97468.58;;;12.11
75811;BMP280;64449;50.016;19.954;2023-04-15T01:13:49;97467.27;;;12.10
75811;BMP280;64449;50.016;19.954;2023-04-15T01:16:15;97470.36;;;12.10
75811;BMP280;64449;50.016;19.954;2023-04-15T01:18:41;97464.86;;;12.10
75811;BMP280;64449;50.016;19.954;2023-04-15T01:21:07;97462.05;;;12.10
75811;BMP280;64449;50.016;19.954;2023-04-15T01:23:35;97466.05;;;12.09
75811;BMP280;64449;50.016;19.954;2023-04-15T01:26:03;97471.80;;;12.06
75811;BMP280;64449;50.016;19.954;2023-04-15T01:28:30;97482.29;;;12.04
75811;BMP280;64449;50.016;19.954;2023-04-15T01:31:13;97484.41;;;12.03
75811;BMP280;64449;50.016;19.954;2023-04-15T01:37:01;97479.52;;;11.98
75811;BMP280;64449;50.016;19.954;2023-04-15T01:39:26;97475.69;;;11.95
75811;BMP280;64449;50.016;19.954;2023-04-15T01:41:51;97473.80;;;11.94
75811;BMP280;64449;50.016;19.954;2023-04-15T01:44:17;97473.48;;;11.91
75811;BMP280;64449;50.016;19.954;2023-04-15T01:46:42;97468.65;;;11.88
75811;BMP280;64449;50.016;19.954;2023-04-15T01:49:08;97466.94;;;11.86
75811;BMP280;64449;50.016;19.954;2023-04-15T01:51:33;97471.20;;;11.86
75811;BMP280;64449;50.016;19.954;2023-04-15T01:53:58;97469.13;;;11.85
75811;BMP280;64449;50.016;19.954;2023-04-15T01:56:24;97472.77;;;11.86
75811;BMP280;64449;50.016;19.954;2023-04-15T01:58:49;97473.88;;;11.84
75811;BMP280;64449;50.016;19.954;2023-04-15T02:01:15;97479.13;;;11.82
75811;BMP280;64449;50.016;19.954;2023-04-15T02:03:44;97483.11;;;11.79
75811;BMP280;64449;50.016;19.954;2023-04-15T02:06:09;97483.96;;;11.75
75811;BMP280;64449;50.016;19.954;2023-04-15T02:08:35;97490.36;;;11.73
75811;BMP280;64449;50.016;19.954;2023-04-15T02:11:00;97494.17;;;11.72
75811;BMP280;64449;50.016;19.954;2023-04-15T02:13:26;97499.79;;;11.74
75811;BMP280;64449;50.016;19.954;2023-04-15T02:15:53;97499.42;;;11.74
75811;BMP280;64449;50.016;19.954;2023-04-15T02:18:19;97497.22;;;11.74
75811;BMP280;64449;50.016;19.954;2023-04-15T02:20:44;97490.77;;;11.73
75811;BMP280;64449;50.016;19.954;2023-04-15T02:23:11;97495.10;;;11.71
75811;BMP280;64449;50.016;19.954;2023-04-15T02:25:37;97502.38;;;11.69
75811;BMP280;64449;50.016;19.954;2023-04-15T02:28:05;97507.38;;;11.66
75811;BMP280;64449;50.016;19.954;2023-04-15T02:30:31;97511.52;;;11.64
75811;BMP280;64449;50.016;19.954;2023-04-15T02:32:57;97511.82;;;11.62
75811;BMP280;64449;50.016;19.954;2023-04-15T02:35:22;97516.86;;;11.59
75811;BMP280;64449;50.016;19.954;2023-04-15T02:37:50;97517.29;;;11.58
75811;BMP280;64449;50.016;19.954;2023-04-15T02:40:16;97517.99;;;11.57
75811;BMP280;64449;50.016;19.954;2023-04-15T02:42:41;97513.95;;;11.55
75811;BMP280;64449;50.016;19.954;2023-04-15T02:45:09;97510.37;;;11.53
75811;BMP280;64449;50.016;19.954;2023-04-15T02:47:36;97508.59;;;11.51
75811;BMP280;64449;50.016;19.954;2023-04-15T02:50:05;97506.84;;;11.52
75811;BMP280;64449;50.016;19.954;2023-04-15T02:52:31;97503.23;;;11.52
75811;BMP280;64449;50.016;19.954;2023-04-15T02:54:57;97503.95;;;11.55
75811;BMP280;64449;50.016;19.954;2023-04-15T02:57:27;97504.73;;;11.59
75811;BMP280;64449;50.016;19.954;2023-04-15T02:59:53;97508.45;;;11.61
75811;BMP280;64449;50.016;19.954;2023-04-15T03:02:19;97511.95;;;11.63
75811;BMP280;64449;50.016;19.954;2023-04-15T03:04:44;97513.67;;;11.63
75811;BMP280;64449;50.016;19.954;2023-04-15T03:07:10;97513.52;;;11.63
75811;BMP280;64449;50.016;19.954;2023-04-15T03:09:35;97511.51;;;11.64
75811;BMP280;64449;50.016;19.954;2023-04-15T03:12:01;97516.59;;;11.64
75811;BMP280;64449;50.016;19.954;2023-04-15T03:14:27;97519.15;;;11.65
75811;BMP280;64449;50.016;19.954;2023-04-15T03:16:52;97523.23;;;11.67
75811;BMP280;64449;50.016;19.954;2023-04-15T03:19:18;97521.20;;;11.69
75811;BMP280;64449;50.016;19.954;2023-04-15T03:21:43;97521.14;;;11.70
75811;BMP280;64449;50.016;19.954;2023-04-15T03:24:08;97524.96;;;11.71
75811;BMP280;64449;50.016;19.954;2023-04-15T03:26:34;97528.85;;;11.73
75811;BMP280;64449;50.016;19.954;2023-04-15T03:28:59;97530.88;;;11.75
75811;BMP280;64449;50.016;19.954;2023-04-15T03:31:25;97534.94;;;11.77
75811;BMP280;64449;50.016;19.954;2023-04-15T03:33:50;97539.14;;;11.79
75811;BMP280;64449;50.016;19.954;2023-04-15T03:36:16;97533.09;;;11.80
75811;BMP280;64449;50.016;19.954;2023-04-15T03:38:42;97535.88;;;11.82
75811;BMP280;64449;50.016;19.954;2023-04-15T03:41:08;97537.77;;;11.84
75811;BMP280;64449;50.016;19.954;2023-04-15T03:43:34;97536.99;;;11.85
75811;BMP280;64449;50.016;19.954;2023-04-15T03:45:59;97539.73;;;11.83
75811;BMP280;64449;50.016;19.954;2023-04-15T03:48:25;97546.59;;;11.80
75811;BMP280;64449;50.016;19.954;2023-04-15T03:50:50;97551.46;;;11.79
75811;BMP280;64449;50.016;19.954;2023-04-15T03:53:16;97559.85;;;11.78
75811;BMP280;64449;50.016;19.954;2023-04-15T03:55:41;97556.57;;;11.76
75811;BMP280;64449;50.016;19.954;2023-04-15T03:58:07;97561.95;;;11.75
75811;BMP280;64449;50.016;19.954;2023-04-15T04:00:33;97570.34;;;11.76
75811;BMP280;64449;50.016;19.954;2023-04-15T04:02:59;97579.08;;;11.77
75811;BMP280;64449;50.016;19.954;2023-04-15T04:05:24;97583.88;;;11.76
75811;BMP280;64449;50.016;19.954;2023-04-15T04:07:50;97590.31;;;11.75
75811;BMP280;64449;50.016;19.954;2023-04-15T04:10:15;97597.65;;;11.75
75811;BMP280;64449;50.016;19.954;2023-04-15T04:12:41;97594.89;;;11.75
75811;BMP280;64449;50.016;19.954;2023-04-15T04:15:07;97588.21;;;11.74
75811;BMP280;64449;50.016;19.954;2023-04-15T04:17:32;97586.71;;;11.72
75811;BMP280;64449;50.016;19.954;2023-04-15T04:19:58;97593.49;;;11.72
75811;BMP280;64449;50.016;19.954;2023-04-15T04:22:23;97595.76;;;11.73
75811;BMP280;64449;50.016;19.954;2023-04-15T04:24:49;97598.39;;;11.74
75811;BMP280;64449;50.016;19.954;2023-04-15T04:27:15;97594.02;;;11.78
75811;BMP280;64449;50.016;19.954;2023-04-15T04:29:40;97593.55;;;11.80
75811;BMP280;64449;50.016;19.954;2023-04-15T04:32:06;97595.37;;;11.82
75811;BMP280;64449;50.016;19.954;2023-04-15T04:34:31;97595.55;;;11.82
75811;BMP280;64449;50.016;19.954;2023-04-15T04:37:00;97597.16;;;11.84
75811;BMP280;64449;50.016;19.954;2023-04-15T04:39:25;97598.09;;;11.86
75811;BMP280;64449;50.016;19.954;2023-04-15T04:41:51;97600.02;;;11.86
75811;BMP280;64449;50.016;19.954;2023-04-15T04:44:17;97598.21;;;11.89
75811;BMP280;64449;50.016;19.954;2023-04-15T04:46:42;97596.20;;;11.92
75811;BMP280;64449;50.016;19.954;2023-04-15T04:49:08;97597.04;;;11.96
75811;BMP280;64449;50.016;19.954;2023-04-15T04:51:33;97597.54;;;12.01
75811;BMP280;64449;50.016;19.954;2023-04-15T04:53:59;97602.30;;;12.03
75811;BMP280;64449;50.016;19.954;2023-04-15T04:56:24;97603.95;;;12.07
75811;BMP280;64449;50.016;19.954;2023-04-15T04:58:50;97608.98;;;12.11
75811;BMP280;64449;50.016;19.954;2023-04-15T05:01:16;97614.55;;;12.14
75811;BMP280;64449;50.016;19.954;2023-04-15T05:03:41;97615.03;;;12.18
75811;BMP280;64449;50.016;19.954;2023-04-15T05:06:07;97613.52;;;12.21
75811;BMP280;64449;50.016;19.954;2023-04-15T05:08:33;97611.52;;;12.25
75811;BMP280;64449;50.016;19.954;2023-04-15T05:10:58;97613.86;;;12.25
75811;BMP280;64449;50.016;19.954;2023-04-15T05:13:24;97614.91;;;12.26
75811;BMP280;64449;50.016;19.954;2023-04-15T05:15:49;97619.89;;;12.25
75811;BMP280;64449;50.016;19.954;2023-04-15T05:18:15;97625.17;;;12.25
75811;BMP280;64449;50.016;19.954;2023-04-15T05:20:41;97629.09;;;12.23
75811;BMP280;64449;50.016;19.954;2023-04-15T05:23:06;97633.11;;;12.21
75811;BMP280;64449;50.016;19.954;2023-04-15T05:25:32;97636.32;;;12.19
75811;BMP280;64449;50.016;19.954;2023-04-15T05:27:57;97637.59;;;12.22
75811;BMP280;64449;50.016;19.954;2023-04-15T05:30:23;97641.85;;;12.28
75811;BMP280;64449;50.016;19.954;2023-04-15T05:32:48;97641.06;;;12.34
75811;BMP280;64449;50.016;19.954;2023-04-15T05:35:14;97639.74;;;12.41
75811;BMP280;64449;50.016;19.954;2023-04-15T05:37:39;97640.54;;;12.49
75811;BMP280;64449;50.016;19.954;2023-04-15T05:40:05;97642.83;;;12.57
75811;BMP280;64449;50.016;19.954;2023-04-15T05:42:31;97641.24;;;12.64
75811;BMP280;64449;50.016;19.954;2023-04-15T05:44:56;97642.17;;;12.69
75811;BMP280;64449;50.016;19.954;2023-04-15T05:47:22;97641.90;;;12.73
75811;BMP280;64449;50.016;19.954;2023-04-15T05:49:47;97642.64;;;12.78
75811;BMP280;64449;50.016;19.954;2023-04-15T05:52:13;97645.14;;;12.87
75811;BMP280;64449;50.016;19.954;2023-04-15T05:54:39;97647.98;;;12.99
75811;BMP280;64449;50.016;19.954;2023-04-15T05:57:04;97649.44;;;13.14
75811;BMP280;64449;50.016;19.954;2023-04-15T05:59:30;97653.20;;;13.28
75811;BMP280;64449;50.016;19.954;2023-04-15T06:01:55;97651.95;;;13.40
75811;BMP280;64449;50.016;19.954;2023-04-15T06:04:21;97647.70;;;13.51
75811;BMP280;64449;50.016;19.954;2023-04-15T06:06:47;97649.80;;;13.60
75811;BMP280;64449;50.016;19.954;2023-04-15T06:09:12;97652.30;;;13.66
75811;BMP280;64449;50.016;19.954;2023-04-15T06:11:37;97655.80;;;13.75
75811;BMP280;64449;50.016;19.954;2023-04-15T06:14:03;97658.17;;;13.87
75811;BMP280;64449;50.016;19.954;2023-04-15T06:16:28;97661.85;;;14.03
75811;BMP280;64449;50.016;19.954;2023-04-15T06:18:54;97664.28;;;14.19
75811;BMP280;64449;50.016;19.954;2023-04-15T06:21:19;97661.67;;;14.35
75811;BMP280;64449;50.016;19.954;2023-04-15T06:23:45;97658.27;;;14.49
75811;BMP280;64449;50.016;19.954;2023-04-15T06:26:10;97654.33;;;14.63
75811;BMP280;64449;50.016;19.954;2023-04-15T06:28:36;97658.51;;;14.80
75811;BMP280;64449;50.016;19.954;2023-04-15T06:31:02;97659.45;;;14.99
75811;BMP280;64449;50.016;19.954;2023-04-15T06:33:27;97665.61;;;15.13
75811;BMP280;64449;50.016;19.954;2023-04-15T06:35:53;97669.41;;;15.25
75811;BMP280;64449;50.016;19.954;2023-04-15T06:38:18;97670.33;;;15.36
75811;BMP280;64449;50.016;19.954;2023-04-15T06:40:44;97672.47;;;15.51
75811;BMP280;64449;50.016;19.954;2023-04-15T06:43:11;97674.98;;;15.73
75811;BMP280;64449;50.016;19.954;2023-04-15T06:45:37;97671.86;;;15.86
75811;BMP280;64449;50.016;19.954;2023-04-15T06:48:03;97673.27;;;15.95
75811;BMP280;64449;50.016;19.954;2023-04-15T06:50:28;97672.80;;;16.05
75811;BMP280;64449;50.016;19.954;2023-04-15T06:52:54;97679.20;;;16.16
75811;BMP280;64449;50.016;19.954;2023-04-15T06:55:20;97678.82;;;16.31
75811;BMP280;64449;50.016;19.954;2023-04-15T06:57:46;97679.78;;;16.51
75811;BMP280;64449;50.016;19.954;2023-04-15T07:00:12;97682.04;;;16.61
75811;BMP280;64449;50.016;19.954;2023-04-15T07:02:38;97683.33;;;16.60
75811;BMP280;64449;50.016;19.954;2023-04-15T07:05:05;97684.91;;;16.61
75811;BMP280;64449;50.016;19.954;2023-04-15T07:07:31;97686.99;;;16.69
75811;BMP280;64449;50.016;19.954;2023-04-15T07:09:56;97686.52;;;16.71
75811;BMP280;64449;50.016;19.954;2023-04-15T07:12:25;97690.02;;;16.82
75811;BMP280;64449;50.016;19.954;2023-04-15T07:14:50;97694.67;;;16.96
75811;BMP280;64449;50.016;19.954;2023-04-15T07:17:16;97693.90;;;16.94
75811;BMP280;64449;50.016;19.954;2023-04-15T07:19:41;97696.11;;;16.94
75811;BMP280;64449;50.016;19.954;2023-04-15T07:22:07;97698.96;;;16.91
75811;BMP280;64449;50.016;19.954;2023-04-15T07:24:32;97698.60;;;16.92
75811;BMP280;64449;50.016;19.954;2023-04-15T07:26:58;97699.95;;;17.03
75811;BMP280;64449;50.016;19.954;2023-04-15T07:29:24;97703.08;;;17.16
75811;BMP280;64449;50.016;19.954;2023-04-15T07:31:49;97707.15;;;17.26
75811;BMP280;64449;50.016;19.954;2023-04-15T07:34:15;97711.66;;;17.39
75811;BMP280;64449;50.016;19.954;2023-04-15T07:36:41;97712.40;;;17.47
75811;BMP280;64449;50.016;19.954;2023-04-15T07:39:07;97714.59;;;17.59
75811;BMP280;64449;50.016;19.954;2023-04-15T07:41:33;97718.55;;;17.70
75811;BMP280;64449;50.016;19.954;2023-04-15T07:43:59;97722.36;;;17.72
75811;BMP280;64449;50.016;19.954;2023-04-15T07:46:24;97722.43;;;17.73
75811;BMP280;64449;50.016;19.954;2023-04-15T07:48:52;97723.92;;;17.83
75811;BMP280;64449;50.016;19.954;2023-04-15T07:51:19;97723.73;;;17.93
75811;BMP280;64449;50.016;19.954;2023-04-15T07:53:48;97722.48;;;18.01
75811;BMP280;64449;50.016;19.954;2023-04-15T07:56:14;97724.02;;;18.04
75811;BMP280;64449;50.016;19.954;2023-04-15T07:58:40;97726.90;;;18.13
75811;BMP280;64449;50.016;19.954;2023-04-15T08:01:06;97729.92;;;18.25
75811;BMP280;64449;50.016;19.954;2023-04-15T08:03:32;97725.27;;;18.30
75811;BMP280;64449;50.016;19.954;2023-04-15T08:05:58;97722.95;;;18.42
75811;BMP280;64449;50.016;19.954;2023-04-15T08:08:24;97727.04;;;18.54
75811;BMP280;64449;50.016;19.954;2023-04-15T08:10:50;97730.48;;;18.61
75811;BMP280;64449;50.016;19.954;2023-04-15T08:13:17;97732.64;;;18.73
75811;BMP280;64449;50.016;19.954;2023-04-15T08:15:42;97734.67;;;18.94
75811;BMP280;64449;50.016;19.954;2023-04-15T08:18:08;97731.36;;;19.24
75811;BMP280;64449;50.016;19.954;2023-04-15T08:20:33;97730.58;;;19.59
75811;BMP280;64449;50.016;19.954;2023-04-15T08:22:59;97732.29;;;19.86
75811;BMP280;64449;50.016;19.954;2023-04-15T08:25:24;97738.48;;;20.13
75811;BMP280;64449;50.016;19.954;2023-04-15T08:27:50;97738.21;;;20.34
75811;BMP280;64449;50.016;19.954;2023-04-15T08:30:16;97740.02;;;20.63
75811;BMP280;64449;50.016;19.954;2023-04-15T08:32:44;97740.86;;;20.86
75811;BMP280;64449;50.016;19.954;2023-04-15T08:35:11;97737.79;;;21.10
75811;BMP280;64449;50.016;19.954;2023-04-15T08:37:37;97735.70;;;21.26
75811;BMP280;64449;50.016;19.954;2023-04-15T08:40:03;97731.87;;;21.23
75811;BMP280;64449;50.016;19.954;2023-04-15T08:42:36;97732.10;;;21.21
75811;BMP280;64449;50.016;19.954;2023-04-15T08:45:08;97731.85;;;21.13
75811;BMP280;64449;50.016;19.954;2023-04-15T08:47:36;97731.54;;;21.21
75811;BMP280;64449;50.016;19.954;2023-04-15T08:50:08;97726.63;;;21.34
75811;BMP280;64449;50.016;19.954;2023-04-15T08:52:35;97728.10;;;21.45
75811;BMP280;64449;50.016;19.954;2023-04-15T08:55:02;97723.84;;;21.47
75811;BMP280;64449;50.016;19.954;2023-04-15T08:57:29;97726.70;;;21.57
75811;BMP280;64449;50.016;19.954;2023-04-15T08:59:56;97724.79;;;21.54
75811;BMP280;64449;50.016;19.954;2023-04-15T09:02:22;97725.58;;;21.47
75811;BMP280;64449;50.016;19.954;2023-04-15T09:04:48;97727.72;;;21.37
75811;BMP280;64449;50.016;19.954;2023-04-15T09:07:13;97724.79;;;21.27
75811;BMP280;64449;50.016;19.954;2023-04-15T09:09:39;97723.87;;;21.30
75811;BMP280;64449;50.016;19.954;2023-04-15T09:12:07;97721.64;;;21.37
75811;BMP280;64449;50.016;19.954;2023-04-15T09:14:32;97722.36;;;21.48
75811;BMP280;64449;50.016;19.954;2023-04-15T09:17:01;97717.96;;;21.27
75811;BMP280;64449;50.016;19.954;2023-04-15T09:19:27;97720.77;;;20.93
75811;BMP280;64449;50.016;19.954;2023-04-15T09:21:54;97718.29;;;20.67
75811;BMP280;64449;50.016;19.954;2023-04-15T09:24:21;97722.41;;;20.55
75811;BMP280;64449;50.016;19.954;2023-04-15T09:26:47;97721.56;;;20.54
75811;BMP280;64449;50.016;19.954;2023-04-15T09:29:16;97723.90;;;20.60
75811;BMP280;64449;50.016;19.954;2023-04-15T09:31:42;97721.56;;;20.61
75811;BMP280;64449;50.016;19.954;2023-04-15T09:34:08;97719.94;;;20.60
75811;BMP280;64449;50.016;19.954;2023-04-15T09:39:12;97719.66;;;20.57
75811;BMP280;64449;50.016;19.954;2023-04-15T09:41:38;97721.55;;;20.52
75811;BMP280;64449;50.016;19.954;2023-04-15T09:44:04;97728.46;;;20.30
75811;BMP280;64449;50.016;19.954;2023-04-15T09:46:43;97730.34;;;20.17
75811;BMP280;64449;50.016;19.954;2023-04-15T09:49:10;97729.61;;;20.04
75811;BMP280;64449;50.016;19.954;2023-04-15T09:51:36;97727.91;;;20.00
75811;BMP280;64449;50.016;19.954;2023-04-15T09:54:02;97728.37;;;20.06
75811;BMP280;64449;50.016;19.954;2023-04-15T09:56:35;97726.80;;;20.17
75811;BMP280;64449;50.016;19.954;2023-04-15T09:59:04;97729.19;;;20.24
75811;BMP280;64449;50.016;19.954;2023-04-15T10:01:30;97728.21;;;20.25
75811;BMP280;64449;50.016;19.954;2023-04-15T10:03:56;97731.34;;;20.34
75811;BMP280;64449;50.016;19.954;2023-04-15T10:06:24;97728.83;;;20.42
75811;BMP280;64449;50.016;19.954;2023-04-15T10:08:50;97726.59;;;20.55
75811;BMP280;64449;50.016;19.954;2023-04-15T10:11:17;97722.26;;;20.82
75811;BMP280;64449;50.016;19.954;2023-04-15T10:13:44;97724.25;;;21.22
75811;BMP280;64449;50.016;19.954;2023-04-15T10:16:11;97721.79;;;21.80
75811;BMP280;64449;50.016;19.954;2023-04-15T10:18:42;97720.45;;;22.29
75811;BMP280;64449;50.016;19.954;2023-04-15T10:21:08;97719.73;;;22.71
75811;BMP280;64449;50.016;19.954;2023-04-15T10:23:33;97711.38;;;23.02
75811;BMP280;64449;50.016;19.954;2023-04-15T10:25:59;97713.08;;;23.44
75811;BMP280;64449;50.016;19.954;2023-04-15T10:28:25;97715.58;;;23.67
75811;BMP280;64449;50.016;19.954;2023-04-15T10:30:51;97708.84;;;23.73
75811;BMP280;64449;50.016;19.954;2023-04-15T10:33:21;97707.45;;;23.91
75811;BMP280;64449;50.016;19.954;2023-04-15T10:35:48;97711.73;;;23.97
75811;BMP280;64449;50.016;19.954;2023-04-15T10:38:47;97708.84;;;23.54
75811;BMP280;64449;50.016;19.954;2023-04-15T10:41:25;97714.03;;;23.16
75811;BMP280;64449;50.016;19.954;2023-04-15T10:44:03;97712.48;;;22.85
75811;BMP280;64449;50.016;19.954;2023-04-15T10:46:45;97715.54;;;22.59
75811;BMP280;64449;50.016;19.954;2023-04-15T10:49:16;97713.35;;;22.63
75811;BMP280;64449;50.016;19.954;2023-04-15T10:51:45;97712.60;;;22.95
75811;BMP280;64449;50.016;19.954;2023-04-15T10:59:34;97705.89;;;23.20
75811;BMP280;64449;50.016;19.954;2023-04-15T11:02:02;97707.65;;;23.16
75811;BMP280;64449;50.016;19.954;2023-04-15T11:12:57;97711.75;;;21.81
75811;BMP280;64449;50.016;19.954;2023-04-15T11:17:56;97713.63;;;21.18
75811;BMP280;64449;50.016;19.954;2023-04-15T11:20:23;97712.02;;;21.16
75811;BMP280;64449;50.016;19.954;2023-04-15T11:22:50;97718.37;;;21.05
75811;BMP280;64449;50.016;19.954;2023-04-15T11:25:23;97721.58;;;20.99
75811;BMP280;64449;50.016;19.954;2023-04-15T11:27:49;97722.13;;;20.90
75811;BMP280;64449;50.016;19.954;2023-04-15T11:30:23;97726.97;;;20.81
75811;BMP280;64449;50.016;19.954;2023-04-15T11:32:50;97728.28;;;20.82
75811;BMP280;64449;50.016;19.954;2023-04-15T11:35:19;97730.33;;;20.81
75811;BMP280;64449;50.016;19.954;2023-04-15T11:37:45;97728.65;;;20.68
75811;BMP280;64449;50.016;19.954;2023-04-15T11:40:11;97729.58;;;20.72
75811;BMP280;64449;50.016;19.954;2023-04-15T11:42:38;97730.52;;;20.75
75811;BMP280;64449;50.016;19.954;2023-04-15T11:45:12;97728.39;;;20.73
75811;BMP280;64449;50.016;19.954;2023-04-15T11:47:39;97728.95;;;20.63
75811;BMP280;64449;50.016;19.954;2023-04-15T11:50:18;97730.27;;;20.55
75811;BMP280;64449;50.016;19.954;2023-04-15T11:52:54;97736.67;;;20.34
75811;BMP280;64449;50.016;19.954;2023-04-15T11:55:22;97737.70;;;20.24
75811;BMP280;64449;50.016;19.954;2023-04-15T11:57:49;97740.38;;;20.07
75811;BMP280;64449;50.016;19.954;2023-04-15T12:00:16;97739.59;;;19.90
75811;BMP280;64449;50.016;19.954;2023-04-15T12:02:42;97741.08;;;19.78
75811;BMP280;64449;50.016;19.954;2023-04-15T12:05:08;97741.80;;;19.67
75811;BMP280;64449;50.016;19.954;2023-04-15T12:08:03;97738.79;;;19.64
75811;BMP280;64449;50.016;19.954;2023-04-15T12:10:30;97739.38;;;19.53
75811;BMP280;64449;50.016;19.954;2023-04-15T12:12:56;97739.72;;;19.50
75811;BMP280;64449;50.016;19.954;2023-04-15T12:15:21;97740.65;;;19.53
75811;BMP280;64449;50.016;19.954;2023-04-15T12:17:48;97741.17;;;19.72
75811;BMP280;64449;50.016;19.954;2023-04-15T12:20:20;97741.59;;;19.98
75811;BMP280;64449;50.016;19.954;2023-04-15T12:22:49;97741.76;;;20.13
75811;BMP280;64449;50.016;19.954;2023-04-15T12:25:14;97748.17;;;20.32
75811;BMP280;64449;50.016;19.954;2023-04-15T12:27:40;97747.98;;;20.53
75811;BMP280;64449;50.016;19.954;2023-04-15T12:30:06;97749.02;;;20.68
75811;BMP280;64449;50.016;19.954;2023-04-15T12:32:35;97746.27;;;20.80
75811;BMP280;64449;50.016;19.954;2023-04-15T12:35:01;97745.61;;;20.83
75811;BMP280;64449;50.016;19.954;2023-04-15T12:37:27;97742.02;;;20.70
75811;BMP280;64449;50.016;19.954;2023-04-15T12:39:53;97741.33;;;20.48
75811;BMP280;64449;50.016;19.954;2023-04-15T12:42:19;97740.70;;;20.23
75811;BMP280;64449;50.016;19.954;2023-04-15T12:44:45;97740.93;;;20.00
75811;BMP280;64449;50.016;19.954;2023-04-15T12:47:11;97746.04;;;19.73
75811;BMP280;64449;50.016;19.954;2023-04-15T12:49:37;97741.22;;;19.51
75811;BMP280;64449;50.016;19.954;2023-04-15T12:52:03;97740.23;;;19.26
75811;BMP280;64449;50.016;19.954;2023-04-15T12:54:32;97750.32;;;19.07
75811;BMP280;64449;50.016;19.954;2023-04-15T12:56:58;97748.61;;;18.88
75811;BMP280;64449;50.016;19.954;2023-04-15T12:59:29;97747.92;;;18.67
75811;BMP280;64449;50.016;19.954;2023-04-15T13:01:55;97745.75;;;18.55
75811;BMP280;64449;50.016;19.954;2023-04-15T13:04:21;97748.64;;;18.49
75811;BMP280;64449;50.016;19.954;2023-04-15T13:06:46;97750.84;;;18.45
75811;BMP280;64449;50.016;19.954;2023-04-15T13:09:12;97752.80;;;18.47
75811;BMP280;64449;50.016;19.954;2023-04-15T13:11:37;97753.56;;;18.44
75811;BMP280;64449;50.016;19.954;2023-04-15T13:14:04;97753.98;;;18.44
75811;BMP280;64449;50.016;19.954;2023-04-15T13:16:31;97751.31;;;18.45
75811;BMP280;64449;50.016;19.954;2023-04-15T13:19:00;97752.69;;;18.59
75811;BMP280;64449;50.016;19.954;2023-04-15T13:21:26;97749.18;;;18.67
75811;BMP280;64449;50.016;19.954;2023-04-15T13:23:53;97752.11;;;18.81
75811;BMP280;64449;50.016;19.954;2023-04-15T13:26:19;97752.95;;;18.94
75811;BMP280;64449;50.016;19.954;2023-04-15T13:28:48;97754.33;;;19.09
75811;BMP280;64449;50.016;19.954;2023-04-15T13:31:15;97746.95;;;19.28
75811;BMP280;64449;50.016;19.954;2023-04-15T13:33:40;97752.20;;;19.38
75811;BMP280;64449;50.016;19.954;2023-04-15T13:36:07;97751.55;;;19.54
75811;BMP280;64449;50.016;19.954;2023-04-15T13:38:32;97753.58;;;19.60
75811;BMP280;64449;50.016;19.954;2023-04-15T13:40:57;97748.71;;;19.63
75811;BMP280;64449;50.016;19.954;2023-04-15T13:43:25;97749.34;;;19.63
75811;BMP280;64449;50.016;19.954;2023-04-15T13:45:51;97746.04;;;19.62
75811;BMP280;64449;50.016;19.954;2023-04-15T13:48:17;97746.65;;;19.63
75811;BMP280;64449;50.016;19.954;2023-04-15T13:50:42;97748.42;;;19.68
75811;BMP280;64449;50.016;19.954;2023-04-15T13:53:10;97743.25;;;19.75
75811;BMP280;64449;50.016;19.954;2023-04-15T13:55:36;97742.39;;;19.74
75811;BMP280;64449;50.016;19.954;2023-04-15T13:58:06;97744.39;;;19.74
75811;BMP280;64449;50.016;19.954;2023-04-15T14:00:31;97745.13;;;19.81
75811;BMP280;64449;50.016;19.954;2023-04-15T14:02:57;97744.17;;;19.90
75811;BMP280;64449;50.016;19.954;2023-04-15T14:05:22;97744.11;;;20.05
75811;BMP280;64449;50.016;19.954;2023-04-15T14:07:47;97744.71;;;20.25
75811;BMP280;64449;50.016;19.954;2023-04-15T14:10:13;97745.26;;;20.37
75811;BMP280;64449;50.016;19.954;2023-04-15T14:12:39;97744.05;;;20.50
75811;BMP280;64449;50.016;19.954;2023-04-15T14:15:05;97740.81;;;20.64